createdAt,value
2022-11-12T00:01:52.667Z,102417.03
2022-11-12T00:04:38.510Z,102410.38
2022-11-12T00:07:24.103Z,102412.19
2022-11-12T00:10:09.824Z,102422.66
2022-11-12T00:12:55.930Z,102410.13
2022-11-12T00:15:41.902Z,102406.38
2022-11-12T00:18:27.887Z,102401.66
2022-11-12T00:21:14.176Z,102411.25
2022-11-12T00:23:59.900Z,102413.69
2022-11-12T00:26:45.848Z,102416.28
2022-11-12T00:29:31.613Z,102420.00
2022-11-12T00:32:17.913Z,102413.56
2022-11-12T00:35:06.041Z,102419.91
2022-11-12T00:37:57.014Z,102418.88
2022-11-12T00:40:43.141Z,102402.91
2022-11-12T00:43:28.657Z,102418.19
2022-11-12T00:46:14.869Z,102414.03
2022-11-12T00:49:01.024Z,102413.72
2022-11-12T00:51:47.274Z,102406.50
2022-11-12T00:54:33.171Z,102410.13
2022-11-12T00:57:18.877Z,102407.84
2022-11-12T01:00:08.262Z,102412.59
2022-11-12T01:02:54.258Z,102410.88
2022-11-12T01:05:39.885Z,102410.84
2022-11-12T01:08:29.896Z,102411.72
2022-11-12T01:11:25.009Z,102409.50
2022-11-12T01:14:12.211Z,102398.50
2022-11-12T01:16:57.901Z,102400.63
2022-11-12T01:19:43.689Z,102397.81
2022-11-12T01:22:29.442Z,102396.19
2022-11-12T01:25:15.447Z,102397.97
2022-11-12T01:28:01.352Z,102393.63
2022-11-12T01:30:47.475Z,102385.91
2022-11-12T01:33:32.991Z,102400.25
2022-11-12T01:36:19.603Z,102384.00
2022-11-12T01:39:06.964Z,102396.72
2022-11-12T01:41:52.520Z,102388.19
2022-11-12T01:44:41.200Z,102380.97
2022-11-12T01:47:29.668Z,102378.75
2022-11-12T01:50:20.738Z,102363.88
2022-11-12T01:53:09.205Z,102371.25
2022-11-12T01:55:56.032Z,102374.53
2022-11-12T01:58:42.421Z,102365.72
2022-11-12T02:01:28.065Z,102362.13
2022-11-12T02:04:14.096Z,102354.66
2022-11-12T02:07:00.659Z,102359.59
2022-11-12T02:09:46.884Z,102367.00
2022-11-12T02:12:52.532Z,102372.56
2022-11-12T02:15:39.047Z,102373.44
2022-11-12T02:18:25.019Z,102370.41
2022-11-12T02:21:10.963Z,102377.66
2022-11-12T02:23:59.377Z,102380.09
2022-11-12T02:26:47.992Z,102383.09
2022-11-12T02:29:34.362Z,102388.06
2022-11-12T02:32:19.914Z,102374.84
2022-11-12T02:35:05.981Z,102366.34
2022-11-12T02:37:51.607Z,102369.91
2022-11-12T02:40:37.646Z,102361.91
2022-11-12T02:44:03.741Z,102364.41
2022-11-12T02:46:57.175Z,102360.06
2022-11-12T02:49:44.706Z,102351.78
2022-11-12T02:52:30.488Z,102350.59
2022-11-12T02:55:16.206Z,102363.06
2022-11-12T02:58:02.065Z,102366.97
2022-11-12T03:00:47.647Z,102354.81
2022-11-12T03:03:33.862Z,102360.94
2022-11-12T03:06:20.221Z,102357.91
2022-11-12T03:09:05.914Z,102347.94
2022-11-12T03:11:51.634Z,102347.09
2022-11-12T03:14:37.360Z,102345.72
2022-11-12T03:17:23.494Z,102344.59
2022-11-12T03:20:10.563Z,102334.41
2022-11-12T03:22:59.973Z,102338.00
2022-11-12T03:25:46.038Z,102345.44
2022-11-12T03:28:32.428Z,102323.41
2022-11-12T03:31:18.284Z,102342.44
2022-11-12T03:34:04.107Z,102334.94
2022-11-12T03:36:49.845Z,102335.75
2022-11-12T03:39:36.558Z,102330.81
2022-11-12T03:42:22.556Z,102336.03
2022-11-12T03:45:08.418Z,102336.88
2022-11-12T03:47:58.195Z,102342.69
2022-11-12T03:50:44.076Z,102345.66
2022-11-12T03:53:30.161Z,102348.69
2022-11-12T03:56:16.227Z,102340.97
2022-11-12T03:59:01.961Z,102345.72
2022-11-12T04:01:48.265Z,102347.41
2022-11-12T04:05:14.597Z,102350.97
2022-11-12T04:08:21.213Z,102353.13
2022-11-12T04:11:12.929Z,102351.78
2022-11-12T04:13:58.916Z,102350.09
2022-11-12T04:17:03.439Z,102362.00
2022-11-12T04:20:07.636Z,102356.75
2022-11-12T04:22:53.430Z,102359.22
2022-11-12T04:25:58.369Z,102357.88
2022-11-12T04:29:04.180Z,102367.53
2022-11-12T04:31:50.376Z,102349.34
2022-11-12T04:34:36.306Z,102346.88
2022-11-12T04:37:23.884Z,102356.22
2022-11-12T04:40:45.157Z,102345.72
2022-11-12T04:43:52.643Z,102346.56
2022-11-12T04:46:38.431Z,102342.44
2022-11-12T04:49:28.421Z,102341.00
2022-11-12T04:52:14.520Z,102342.72
2022-11-12T04:55:00.641Z,102344.09
2022-11-12T04:57:46.408Z,102352.94
2022-11-12T05:00:32.381Z,102341.34
2022-11-12T05:03:18.687Z,102344.38
2022-11-12T05:06:29.109Z,102342.44
2022-11-12T05:09:15.171Z,102354.03
2022-11-12T05:12:01.263Z,102341.88
2022-11-12T05:14:46.928Z,102347.94
2022-11-12T05:17:32.489Z,102341.88
2022-11-12T05:20:18.590Z,102346.03
2022-11-12T05:23:07.339Z,102348.25
2022-11-12T05:25:53.696Z,102350.75
2022-11-12T05:28:39.385Z,102341.91
2022-11-12T05:31:25.195Z,102351.28
2022-11-12T05:34:11.324Z,102344.94
2022-11-12T05:36:57.388Z,102353.47
2022-11-12T05:39:43.629Z,102347.69
2022-11-12T05:42:29.387Z,102341.38
2022-11-12T05:45:15.396Z,102332.25
2022-11-12T05:48:01.353Z,102333.91
2022-11-12T05:51:12.995Z,102339.13
2022-11-12T05:53:56.106Z,102339.69
2022-11-12T05:56:41.973Z,102344.09
2022-11-12T05:59:27.879Z,102339.44
2022-11-12T06:02:13.749Z,102344.66
2022-11-12T06:04:59.644Z,102356.53
2022-11-12T06:07:45.366Z,102358.16
2022-11-12T06:10:32.277Z,102354.56
2022-11-12T06:13:18.808Z,102355.38
2022-11-12T06:16:05.556Z,102351.84
2022-11-12T06:18:51.518Z,102353.47
2022-11-12T06:21:37.816Z,102354.56
2022-11-12T06:24:24.276Z,102354.84
2022-11-12T06:27:10.341Z,102360.38
2022-11-12T06:29:55.844Z,102352.66
2022-11-12T06:32:41.582Z,102352.66
2022-11-12T06:35:27.409Z,102363.69
2022-11-12T06:38:13.465Z,102360.38
2022-11-12T06:40:59.846Z,102352.91
2022-11-12T06:43:46.116Z,102357.06
2022-11-12T06:46:31.770Z,102358.19
2022-11-12T06:49:17.379Z,102362.28
2022-11-12T06:52:03.710Z,102363.69
2022-11-12T06:54:49.521Z,102358.97
2022-11-12T06:57:36.013Z,102369.75
2022-11-12T07:00:23.494Z,102370.88
2022-11-12T07:03:10.125Z,102371.69
2022-11-12T07:05:55.969Z,102377.47
2022-11-12T07:08:42.134Z,102370.56
2022-11-12T07:11:27.971Z,102368.66
2022-11-12T07:14:13.802Z,102373.88
2022-11-12T07:16:59.356Z,102374.16
2022-11-12T07:19:45.333Z,102383.81
2022-11-12T07:22:33.385Z,102376.91
2022-11-12T07:25:19.323Z,102382.13
2022-11-12T07:28:05.075Z,102383.25
2022-11-12T07:31:04.616Z,102386.84
2022-11-12T07:33:53.060Z,102396.47
2022-11-12T07:36:38.978Z,102393.47
2022-11-12T07:39:24.772Z,102395.66
2022-11-12T07:42:10.556Z,102391.53
2022-11-12T07:44:56.573Z,102395.94
2022-11-12T07:47:42.630Z,102405.03
2022-11-12T07:50:28.594Z,102398.97
2022-11-12T07:53:14.382Z,102403.13
2022-11-12T07:56:01.681Z,102404.47
2022-11-12T07:58:48.256Z,102406.41
2022-11-12T08:01:34.684Z,102419.94
2022-11-12T08:04:20.700Z,102410.28
2022-11-12T08:07:06.801Z,102419.09
2022-11-12T08:09:53.231Z,102419.66
2022-11-12T08:12:38.985Z,102419.09
2022-11-12T08:15:25.015Z,102417.97
2022-11-12T08:18:10.586Z,102415.81
2022-11-12T08:21:04.994Z,102424.09
2022-11-12T08:23:50.949Z,102427.66
2022-11-12T08:26:37.067Z,102419.13
2022-11-12T08:29:25.480Z,102431.50
2022-11-12T08:32:11.645Z,102435.38
2022-11-12T08:34:57.433Z,102434.28
2022-11-12T08:37:43.188Z,102442.81
2022-11-12T08:40:30.989Z,102436.47
2022-11-12T08:43:17.499Z,102440.34
2022-11-12T08:46:04.103Z,102448.06
2022-11-12T08:49:35.611Z,102445.53
2022-11-12T08:56:42.397Z,102433.13
2022-11-12T09:00:38.622Z,102428.97
2022-11-12T09:39:07.115Z,102414.94
2022-11-12T09:48:17.890Z,102412.91
2022-11-12T09:52:56.212Z,102425.63
2022-11-12T09:59:13.437Z,102441.47
2022-11-12T10:02:22.842Z,102435.88
2022-11-12T10:05:27.313Z,102440.28
2022-11-12T10:08:36.376Z,102435.69
2022-11-12T10:11:28.336Z,102429.50
2022-11-12T10:14:31.854Z,102428.81
2022-11-12T10:17:35.556Z,102427.16
2022-11-12T10:20:26.166Z,102441.59
2022-11-12T10:23:22.834Z,102428.06
2022-11-12T10:26:15.006Z,102430.75
2022-11-12T10:29:14.596Z,102423.31
2022-11-12T10:32:03.764Z,102424.88
2022-11-12T10:34:49.908Z,102412.03
2022-11-12T10:37:42.762Z,102416.47
2022-11-12T10:40:28.630Z,102418.13
2022-11-12T10:43:17.109Z,102410.13
2022-11-12T10:46:20.254Z,102411.00
2022-11-12T10:49:15.301Z,102413.53
2022-11-12T10:52:01.350Z,102409.63
2022-11-12T10:54:52.370Z,102397.94
2022-11-12T10:57:41.091Z,102385.19
2022-11-12T11:00:26.832Z,102386.63
2022-11-12T11:03:19.621Z,102395.53
2022-11-12T11:06:26.177Z,102384.25
2022-11-12T11:09:11.855Z,102374.84
2022-11-12T11:11:58.218Z,102369.84
2022-11-12T11:14:44.686Z,102367.91
2022-11-12T11:17:30.589Z,102363.22
2022-11-12T11:20:23.023Z,102376.16
2022-11-12T11:23:17.385Z,102361.53
2022-11-12T11:26:14.393Z,102345.34
2022-11-12T11:29:44.854Z,102346.22
2022-11-12T11:32:37.764Z,102334.59
2022-11-12T11:35:57.628Z,102334.19
2022-11-12T11:39:24.826Z,102324.47
2022-11-12T11:42:16.257Z,102319.09
2022-11-12T11:45:28.888Z,102319.38
2022-11-12T11:48:32.881Z,102315.03
2022-11-12T11:51:40.434Z,102317.84
2022-11-12T11:54:44.491Z,102319.22
2022-11-12T11:57:52.664Z,102317.28
2022-11-12T12:00:46.618Z,102312.13
2022-11-12T12:03:54.447Z,102304.00
2022-11-12T12:07:02.484Z,102308.94
2022-11-12T12:10:09.294Z,102306.88
2022-11-12T12:13:07.561Z,102305.84
2022-11-12T12:16:24.294Z,102307.59
2022-11-12T12:19:22.165Z,102303.91
2022-11-12T12:22:15.637Z,102305.34
2022-11-12T12:25:11.513Z,102288.25
2022-11-12T12:28:02.869Z,102292.44
2022-11-12T12:30:52.462Z,102286.41
2022-11-12T12:33:51.625Z,102289.41
2022-11-12T12:36:39.826Z,102276.78
2022-11-12T12:39:27.662Z,102275.09
2022-11-12T12:42:28.085Z,102266.38
2022-11-12T12:45:35.939Z,102257.75
2022-11-12T12:48:27.982Z,102260.41
2022-11-12T12:51:13.979Z,102272.06
2022-11-12T12:54:00.165Z,102272.06
2022-11-12T12:56:47.357Z,102270.47
2022-11-12T12:59:33.552Z,102266.97
2022-11-12T13:02:22.096Z,102256.22
2022-11-12T13:05:25.131Z,102253.16
2022-11-12T13:08:13.855Z,102248.03
2022-11-12T13:10:59.817Z,102243.50
2022-11-12T13:13:45.700Z,102244.09
2022-11-12T13:16:51.084Z,102238.66
2022-11-12T13:19:44.529Z,102221.97
2022-11-12T13:22:47.455Z,102225.59
2022-11-12T13:25:33.284Z,102220.56
2022-11-12T13:28:19.226Z,102223.94
2022-11-12T13:31:25.762Z,102226.13
2022-11-12T13:34:33.068Z,102215.38
2022-11-12T13:37:20.621Z,102217.72
2022-11-12T13:40:16.773Z,102211.16
2022-11-12T13:43:31.218Z,102209.16
2022-11-12T13:46:35.007Z,102202.56
2022-11-12T13:49:21.174Z,102206.31
2022-11-12T13:52:07.585Z,102200.03
2022-11-12T13:55:05.854Z,102199.41
2022-11-12T13:57:55.595Z,102208.13
2022-11-12T14:00:51.931Z,102197.19
2022-11-12T14:03:48.852Z,102200.44
2022-11-12T14:06:34.637Z,102194.41
2022-11-12T14:09:50.987Z,102193.00
2022-11-12T14:12:52.156Z,102188.88
2022-11-12T14:16:02.585Z,102180.09
2022-11-12T14:19:24.239Z,102181.97
2022-11-12T14:22:20.644Z,102176.69
2022-11-12T14:25:25.086Z,102177.22
2022-11-12T14:28:33.941Z,102172.97
2022-11-12T14:31:24.257Z,102159.22
2022-11-12T14:34:20.647Z,102169.94
2022-11-12T14:37:07.107Z,102164.50
2022-11-12T14:39:52.995Z,102160.56
2022-11-12T14:42:39.960Z,102162.25
2022-11-12T14:45:26.739Z,102159.53
2022-11-12T14:48:15.018Z,102157.59
2022-11-12T14:51:05.785Z,102149.78
2022-11-12T14:54:05.092Z,102145.50
2022-11-12T14:56:51.156Z,102147.00
2022-11-12T14:59:37.199Z,102142.41
2022-11-12T15:02:37.630Z,102143.06
2022-11-12T15:05:32.918Z,102140.94
2022-11-12T15:08:32.158Z,102136.84
2022-11-12T15:11:22.864Z,102130.16
2022-11-12T15:14:22.668Z,102139.47
2022-11-12T15:17:24.102Z,102135.56
2022-11-12T15:20:15.525Z,102129.50
2022-11-12T15:23:01.271Z,102129.19
2022-11-12T15:25:57.838Z,102125.03
2022-11-12T15:28:59.006Z,102128.09
2022-11-12T15:31:56.981Z,102135.16
2022-11-12T15:34:47.378Z,102133.16
2022-11-12T15:37:40.585Z,102130.75
2022-11-12T15:40:26.667Z,102126.84
2022-11-12T15:43:22.397Z,102130.09
2022-11-12T15:46:12.273Z,102124.81
2022-11-12T15:48:58.345Z,102110.44
2022-11-12T15:51:44.288Z,102116.50
2022-11-12T15:54:38.179Z,102111.75
2022-11-12T15:57:29.044Z,102117.50
2022-11-12T16:00:16.059Z,102114.06
2022-11-12T16:03:18.193Z,102111.28
2022-11-12T16:06:08.956Z,102107.03
2022-11-12T16:08:55.385Z,102099.16
2022-11-12T16:11:41.294Z,102113.03
2022-11-12T16:14:27.367Z,102112.03
2022-11-12T16:17:15.613Z,102110.38
2022-11-12T16:20:01.861Z,102104.44
2022-11-12T16:22:51.632Z,102105.78
2022-11-12T16:25:38.402Z,102103.09
2022-11-12T16:28:24.473Z,102098.38
2022-11-12T16:31:10.252Z,102101.28
2022-11-12T16:33:55.944Z,102103.63
2022-11-12T16:36:41.521Z,102102.78
2022-11-12T16:39:27.370Z,102104.91
2022-11-12T16:42:13.290Z,102114.25
2022-11-12T16:44:59.003Z,102112.28
2022-11-12T16:47:53.950Z,102111.13
2022-11-12T16:50:40.234Z,102112.53
2022-11-12T16:53:26.290Z,102115.13
2022-11-12T16:56:22.528Z,102106.19
2022-11-12T16:59:11.384Z,102106.97
2022-11-12T17:01:57.134Z,102100.91
2022-11-12T17:04:42.997Z,102108.44
2022-11-12T17:07:28.925Z,102107.94
2022-11-12T17:10:15.027Z,102103.19
2022-11-12T17:13:00.846Z,102104.09
2022-11-12T17:15:46.968Z,102093.88
2022-11-12T17:18:32.686Z,102099.06
2022-11-12T17:21:19.034Z,102091.38
2022-11-12T17:24:04.988Z,102093.03
2022-11-12T17:26:50.842Z,102086.31
2022-11-12T17:29:37.061Z,102081.59
2022-11-12T17:32:23.738Z,102086.97
2022-11-12T17:35:09.683Z,102078.78
2022-11-12T17:37:58.181Z,102081.03
2022-11-12T17:40:44.171Z,102084.97
2022-11-12T17:43:30.309Z,102088.81
2022-11-12T17:46:16.433Z,102080.03
2022-11-12T17:49:02.549Z,102081.19
2022-11-12T17:51:49.666Z,102084.09
2022-11-12T17:54:35.444Z,102077.00
2022-11-12T17:57:20.973Z,102079.59
2022-11-12T18:00:07.859Z,102078.38
2022-11-12T18:02:55.743Z,102080.78
2022-11-12T18:05:41.700Z,102073.47
2022-11-12T18:08:27.662Z,102076.41
2022-11-12T18:11:15.086Z,102080.59
2022-11-12T18:14:06.504Z,102087.41
2022-11-12T18:16:52.142Z,102084.91
2022-11-12T18:19:37.986Z,102096.16
2022-11-12T18:22:24.270Z,102088.66
2022-11-12T18:25:10.238Z,102102.88
2022-11-12T18:27:56.173Z,102093.41
2022-11-12T18:30:41.800Z,102091.88
2022-11-12T18:33:27.943Z,102088.19
2022-11-12T18:36:18.879Z,102093.41
2022-11-12T18:39:04.845Z,102087.09
2022-11-12T18:41:51.380Z,102086.69
2022-11-12T18:44:37.265Z,102090.72
2022-11-12T18:47:23.052Z,102088.44
2022-11-12T18:50:09.331Z,102087.34
2022-11-12T18:52:55.987Z,102080.66
2022-11-12T18:55:41.640Z,102086.53
2022-11-12T18:58:33.592Z,102090.13
2022-11-12T19:01:22.869Z,102078.72
2022-11-12T19:04:10.607Z,102076.47
2022-11-12T19:06:56.896Z,102074.81
2022-11-12T19:09:42.701Z,102075.34
2022-11-12T19:12:28.902Z,102075.34
2022-11-12T19:15:14.875Z,102071.84
2022-11-12T19:18:01.286Z,102074.59
2022-11-12T19:20:48.328Z,102071.31
2022-11-12T19:23:34.018Z,102067.81
2022-11-12T19:26:20.282Z,102066.38
2022-11-12T19:29:06.000Z,102067.06
2022-11-12T19:31:51.698Z,102068.44
2022-11-12T19:34:37.732Z,102066.56
2022-11-12T19:37:39.087Z,102066.19
2022-11-12T19:40:24.937Z,102060.66
2022-11-12T19:43:11.222Z,102065.47
2022-11-12T19:45:56.991Z,102063.69
2022-11-12T19:48:43.178Z,102063.00
2022-11-12T19:51:30.954Z,102059.22
2022-11-12T19:54:16.760Z,102060.00
2022-11-12T19:57:02.514Z,102059.47
2022-11-12T19:59:48.580Z,102051.06
2022-11-12T20:02:35.296Z,102052.41
2022-11-12T20:05:21.377Z,102048.91
2022-11-12T20:08:07.522Z,102042.84
2022-11-12T20:10:53.306Z,102037.81
2022-11-12T20:13:39.513Z,102035.16
2022-11-12T20:16:25.945Z,102036.00
2022-11-12T20:19:12.019Z,102030.97
2022-11-12T20:21:57.858Z,102024.59
2022-11-12T20:24:44.104Z,102017.31
2022-11-12T20:27:30.065Z,102018.97
2022-11-12T20:30:16.033Z,102020.28
2022-11-12T20:33:01.860Z,102015.44
2022-11-12T20:35:47.737Z,102025.03
2022-11-12T20:38:36.651Z,102019.38
2022-11-12T20:41:24.537Z,102020.16
2022-11-12T20:44:10.305Z,102024.22
2022-11-12T20:46:56.472Z,102014.72
2022-11-12T20:49:42.215Z,102022.22
2022-11-12T20:52:27.812Z,102016.38
2022-11-12T20:55:13.506Z,102023.53
2022-11-12T20:58:00.206Z,102011.72
2022-11-12T21:00:46.118Z,102018.13
2022-11-12T21:03:32.222Z,102020.13
2022-11-12T21:06:20.169Z,102016.69
2022-11-12T21:09:06.668Z,102023.09
2022-11-12T21:11:53.118Z,102023.84
2022-11-12T21:14:39.094Z,102021.63
2022-11-12T21:17:25.159Z,102019.13
2022-11-12T21:20:11.230Z,102018.09
2022-11-12T21:22:57.595Z,102017.94
2022-11-12T21:25:43.687Z,102005.59
2022-11-12T21:28:29.607Z,102018.16
2022-11-12T21:31:20.789Z,102009.25
2022-11-12T21:34:07.086Z,102005.56
2022-11-12T21:36:53.031Z,102013.41
2022-11-12T21:39:38.909Z,102017.84
2022-11-12T21:42:25.157Z,102014.66
2022-11-12T21:45:11.592Z,102014.19
2022-11-12T21:47:57.555Z,102013.47
2022-11-12T21:50:43.326Z,102008.22
2022-11-12T21:53:29.360Z,102007.06
2022-11-12T21:56:17.705Z,102003.78
2022-11-12T21:59:04.497Z,101999.31
2022-11-12T22:01:50.542Z,101999.31
2022-11-12T22:04:36.358Z,101998.97
2022-11-12T22:07:22.022Z,101994.97
2022-11-12T22:10:07.769Z,101994.53
2022-11-12T22:13:24.682Z,101995.34
2022-11-12T22:15:59.481Z,101998.81
2022-11-12T22:18:47.017Z,101985.38
2022-11-12T22:21:39.420Z,101985.16
2022-11-12T22:24:25.939Z,101982.97
2022-11-12T22:27:11.668Z,101984.75
2022-11-12T22:29:57.424Z,101977.50
2022-11-12T22:32:43.286Z,101974.75
2022-11-12T22:35:29.136Z,101973.47
2022-11-12T22:38:14.877Z,101969.09
2022-11-12T22:41:02.245Z,101972.44
2022-11-12T22:43:49.506Z,101971.38
2022-11-12T22:46:35.557Z,101970.47
2022-11-12T22:49:21.517Z,101970.19
2022-11-12T22:52:07.303Z,101965.56
2022-11-12T22:54:53.550Z,101968.41
2022-11-12T22:57:39.237Z,101962.03
2022-11-12T23:00:30.951Z,101958.03
2022-11-12T23:03:17.005Z,101955.75
2022-11-12T23:06:05.624Z,101963.47
2022-11-12T23:08:53.792Z,101957.72
2022-11-12T23:11:39.736Z,101951.44
2022-11-12T23:14:26.991Z,101947.56
2022-11-12T23:17:13.135Z,101943.00
2022-11-12T23:23:23.025Z,101947.56
2022-11-12T23:26:12.372Z,101935.09
2022-11-12T23:28:58.389Z,101929.25
2022-11-12T23:31:44.212Z,101933.16
2022-11-12T23:34:29.800Z,101935.63
2022-11-12T23:37:15.638Z,101941.75
2022-11-12T23:40:01.300Z,101934.50
2022-11-12T23:42:47.558Z,101931.56
2022-11-12T23:45:38.181Z,101933.84
2022-11-12T23:48:24.886Z,101933.00
2022-11-12T23:51:13.596Z,101929.94
2022-11-12T23:53:59.727Z,101931.16
2022-11-12T23:56:45.533Z,101931.22
2022-11-12T23:59:31.096Z,101919.25
